Time;durP1;ratioP1;P1;durP2;ratioP2;P2;SDS_P1;SDS_P2;PMS_P1;PMS_P2;Temp;Humidity;BMP_temperature;BMP_pressure;BME280_temperature;BME280_humidity;BME280_pressure;Samples;Min_cycle;Max_cycle;Signal;HPM_P1;HPM_P2
2020/12/21 00:01:46;;;;;;;14.77;9.90;;;;;;;;;;5099569;28;20938;-75
2020/12/21 00:04:13;;;;;;;12.53;9.47;;;;;;;;;;5098850;28;20472;-76
2020/12/21 00:06:41;;;;;;;16.77;8.97;;;;;;;;;;5098559;28;20460;-77
2020/12/21 00:09:09;;;;;;;14.33;10.77;;;;;;;;;;5098052;28;20945;-76
2020/12/21 00:11:37;;;;;;;11.70;10.10;;;;;;;;;;5098444;28;20468;-76
2020/12/21 00:14:08;;;;;;;13.37;9.17;;;;;;;;;;5098420;28;20471;-76
2020/12/21 00:16:40;;;;;;;12.83;8.97;;;;;;;;;;5098490;28;20543;-76
2020/12/21 00:19:08;;;;;;;16.47;9.33;;;;;;;;;;5098665;28;20779;-75
2020/12/21 00:21:36;;;;;;;14.33;8.37;;;;;;;;;;5098650;28;20467;-75
2020/12/21 00:24:03;;;;;;;10.67;7.80;;;;;;;;;;5098744;28;20557;-77
2020/12/21 00:26:31;;;;;;;12.40;9.00;;;;;;;;;;5098074;28;20456;-76
2020/12/21 00:28:59;;;;;;;12.03;8.30;;;;;;;;;;5098465;28;20545;-76
2020/12/21 00:31:27;;;;;;;12.37;8.07;;;;;;;;;;5097636;28;20464;-76
2020/12/21 00:33:55;;;;;;;12.97;8.27;;;;;;;;;;5098455;28;20483;-75
2020/12/21 00:36:22;;;;;;;12.67;8.30;;;;;;;;;;5098703;28;20452;-76
2020/12/21 00:38:55;;;;;;;13.93;8.73;;;;;;;;;;5097434;28;20937;-74
2020/12/21 00:41:22;;;;;;;12.83;8.43;;;;;;;;;;5098353;28;20452;-76
2020/12/21 00:43:51;;;;;;;13.00;7.90;;;;;;;;;;5097507;28;20479;-77
2020/12/21 00:46:19;;;;;;;11.63;8.60;;;;;;;;;;5097621;28;20460;-77
2020/12/21 00:48:47;;;;;;;10.43;7.50;;;;;;;;;;5097708;28;20464;-76
2020/12/21 00:51:15;;;;;;;11.70;7.80;;;;;;;;;;5096002;28;20468;-75
2020/12/21 00:53:42;;;;;;;8.87;6.80;;;;;;;;;;5098235;28;20463;-76
2020/12/21 00:56:10;;;;;;;11.37;8.00;;;;;;;;;;5092094;28;20464;-77
2020/12/21 00:58:38;;;;;;;12.87;7.90;;;;;;;;;;5089526;28;20465;-76
2020/12/21 01:01:08;;;;;;;13.73;8.80;;;;;;;;;;5088356;28;20823;-75
2020/12/21 01:03:36;;;;;;;12.33;7.97;;;;;;;;;;5085312;28;20488;-75
2020/12/21 01:06:03;;;;;;;11.87;7.10;;;;;;;;;;5081784;28;20453;-75
2020/12/21 01:08:30;;;;;;;11.30;7.67;;;;;;;;;;5080213;28;20456;-76
2020/12/21 01:10:57;;;;;;;14.73;8.00;;;;;;;;;;5082003;28;20715;-77
2020/12/21 01:13:25;;;;;;;13.87;7.97;;;;;;;;;;5097510;28;20464;-76
2020/12/21 01:15:52;;;;;;;13.23;7.97;;;;;;;;;;5091419;28;20730;-76
2020/12/21 01:18:20;;;;;;;13.67;7.50;;;;;;;;;;5077780;28;20733;-75
2020/12/21 01:20:47;;;;;;;13.90;7.70;;;;;;;;;;5078033;28;20464;-74
2020/12/21 01:23:15;;;;;;;14.93;8.87;;;;;;;;;;5077219;28;20500;-76
2020/12/21 01:25:42;;;;;;;12.37;9.17;;;;;;;;;;5080061;28;20461;-76
2020/12/21 01:28:10;;;;;;;12.00;7.90;;;;;;;;;;5077403;28;20472;-76
2020/12/21 01:30:37;;;;;;;13.73;8.93;;;;;;;;;;5078218;28;20457;-76
2020/12/21 01:33:04;;;;;;;11.50;7.80;;;;;;;;;;5097280;28;20525;-75
2020/12/21 01:35:34;;;;;;;12.53;8.37;;;;;;;;;;5098244;28;20514;-75
2020/12/21 01:38:01;;;;;;;14.30;7.73;;;;;;;;;;5097701;28;20466;-76
2020/12/21 01:40:31;;;;;;;11.80;8.43;;;;;;;;;;5097211;28;20750;-77
2020/12/21 01:42:59;;;;;;;11.17;8.37;;;;;;;;;;5087789;28;20492;-76
2020/12/21 01:45:27;;;;;;;15.57;8.90;;;;;;;;;;5077163;28;20891;-75
2020/12/21 01:47:54;;;;;;;12.30;8.40;;;;;;;;;;5076862;28;20464;-76
2020/12/21 01:50:22;;;;;;;9.40;7.50;;;;;;;;;;5076752;28;20463;-76
2020/12/21 01:52:50;;;;;;;10.20;7.37;;;;;;;;;;5076128;28;20885;-76
2020/12/21 01:55:17;;;;;;;17.53;8.17;;;;;;;;;;5076544;28;20471;-77
2020/12/21 01:57:44;;;;;;;15.27;8.10;;;;;;;;;;5076755;28;20881;-75
2020/12/21 02:00:13;;;;;;;13.27;7.40;;;;;;;;;;5077023;28;20527;-77
2020/12/21 02:02:41;;;;;;;13.50;8.63;;;;;;;;;;5076767;28;20485;-76
2020/12/21 02:05:08;;;;;;;11.20;8.53;;;;;;;;;;5077335;28;20473;-76
2020/12/21 02:07:35;;;;;;;16.03;7.73;;;;;;;;;;5076615;28;20456;-76
2020/12/21 02:10:04;;;;;;;10.30;8.20;;;;;;;;;;5076360;28;20877;-76
2020/12/21 02:12:31;;;;;;;12.17;8.37;;;;;;;;;;5076222;28;20901;-76
2020/12/21 02:14:58;;;;;;;13.73;7.77;;;;;;;;;;5075994;28;20468;-77
2020/12/21 02:17:25;;;;;;;9.90;7.50;;;;;;;;;;5076891;28;20472;-76
2020/12/21 02:19:53;;;;;;;12.43;7.53;;;;;;;;;;5076711;28;20546;-75
2020/12/21 02:22:21;;;;;;;10.20;7.20;;;;;;;;;;5076406;28;20496;-76
2020/12/21 02:24:48;;;;;;;12.00;8.07;;;;;;;;;;5076539;28;20550;-75
2020/12/21 02:27:16;;;;;;;16.33;7.90;;;;;;;;;;5075175;28;20437;-75
2020/12/21 02:29:43;;;;;;;9.67;6.57;;;;;;;;;;5076465;28;20469;-75
2020/12/21 02:32:10;;;;;;;13.87;7.90;;;;;;;;;;5076568;28;20457;-75
2020/12/21 02:34:37;;;;;;;12.63;7.50;;;;;;;;;;5076407;28;20465;-75
2020/12/21 02:37:05;;;;;;;11.50;7.57;;;;;;;;;;5076272;28;20492;-75
2020/12/21 02:39:33;;;;;;;9.83;6.27;;;;;;;;;;5076047;28;20498;-75
2020/12/21 02:42:00;;;;;;;13.30;6.30;;;;;;;;;;5076651;28;20484;-75
2020/12/21 02:44:27;;;;;;;9.97;6.50;;;;;;;;;;5076610;28;20476;-75
2020/12/21 02:46:55;;;;;;;9.00;6.80;;;;;;;;;;5075716;28;20460;-75
2020/12/21 02:49:22;;;;;;;13.43;6.70;;;;;;;;;;5077774;28;20460;-75
2020/12/21 02:51:53;;;;;;;8.00;7.00;;;;;;;;;;5075727;28;20474;-75
2020/12/21 02:54:20;;;;;;;18.40;6.90;;;;;;;;;;5076420;28;20551;-76
2020/12/21 02:56:53;;;;;;;10.43;7.27;;;;;;;;;;5076590;28;20468;-76
2020/12/21 02:59:20;;;;;;;12.97;6.77;;;;;;;;;;5076295;28;20538;-76
2020/12/21 03:01:48;;;;;;;12.13;6.63;;;;;;;;;;5078066;28;20457;-76
2020/12/21 03:04:15;;;;;;;14.87;6.93;;;;;;;;;;5080229;28;20535;-76
2020/12/21 03:06:42;;;;;;;11.10;6.53;;;;;;;;;;5080235;28;20797;-76
2020/12/21 03:09:10;;;;;;;9.97;6.70;;;;;;;;;;5080034;28;20766;-75
2020/12/21 03:11:37;;;;;;;13.67;7.33;;;;;;;;;;5079928;28;20487;-74
2020/12/21 03:14:06;;;;;;;12.07;6.90;;;;;;;;;;5080180;28;20530;-75
2020/12/21 03:16:33;;;;;;;12.17;6.47;;;;;;;;;;5091041;28;20464;-75
2020/12/21 03:19:00;;;;;;;11.43;6.30;;;;;;;;;;5097702;28;20457;-75
2020/12/21 03:21:30;;;;;;;12.80;6.90;;;;;;;;;;5080980;28;20462;-75
2020/12/21 03:23:57;;;;;;;15.50;7.47;;;;;;;;;;5079915;28;20497;-74
2020/12/21 03:26:26;;;;;;;12.33;7.17;;;;;;;;;;5092709;28;20455;-75
2020/12/21 03:28:53;;;;;;;12.27;6.23;;;;;;;;;;5098843;28;20464;-74
2020/12/21 03:31:21;;;;;;;18.70;7.93;;;;;;;;;;5080243;28;20500;-73
2020/12/21 03:33:48;;;;;;;13.57;8.07;;;;;;;;;;5079455;28;20465;-75
2020/12/21 03:36:16;;;;;;;14.50;7.50;;;;;;;;;;5080149;28;20467;-75
2020/12/21 03:38:43;;;;;;;12.37;6.90;;;;;;;;;;5079588;28;20468;-75
2020/12/21 03:41:10;;;;;;;12.70;8.07;;;;;;;;;;5079916;28;20457;-75
2020/12/21 03:43:40;;;;;;;11.07;7.33;;;;;;;;;;5079490;28;20485;-75
2020/12/21 03:46:07;;;;;;;9.57;6.60;;;;;;;;;;5086572;28;20761;-75
2020/12/21 03:48:36;;;;;;;9.80;6.90;;;;;;;;;;5099879;28;20822;-75
2020/12/21 03:51:03;;;;;;;13.47;8.10;;;;;;;;;;5099997;28;20466;-75
2020/12/21 03:53:31;;;;;;;12.80;7.27;;;;;;;;;;5099773;28;20541;-75
2020/12/21 03:55:58;;;;;;;17.80;7.17;;;;;;;;;;5099415;28;20460;-75
2020/12/21 03:58:25;;;;;;;12.10;7.33;;;;;;;;;;5099541;28;20872;-75
2020/12/21 04:00:52;;;;;;;13.87;7.70;;;;;;;;;;5099699;28;20452;-75
2020/12/21 04:03:22;;;;;;;13.60;7.47;;;;;;;;;;5083469;28;20499;-75
2020/12/21 04:05:51;;;;;;;15.33;8.10;;;;;;;;;;5078451;28;20484;-75
2020/12/21 04:08:18;;;;;;;11.00;6.53;;;;;;;;;;5078797;28;20461;-75
2020/12/21 04:10:46;;;;;;;13.53;8.40;;;;;;;;;;5078443;28;20879;-75
2020/12/21 04:13:13;;;;;;;11.40;8.37;;;;;;;;;;5076778;28;20471;-75
2020/12/21 04:15:41;;;;;;;18.60;7.80;;;;;;;;;;5078239;28;20491;-76
2020/12/21 04:18:09;;;;;;;12.10;7.20;;;;;;;;;;5078359;28;20460;-75
2020/12/21 04:20:36;;;;;;;11.73;7.20;;;;;;;;;;5077816;28;20452;-75
2020/12/21 04:23:04;;;;;;;14.00;7.93;;;;;;;;;;5078033;28;20488;-75
2020/12/21 04:25:31;;;;;;;18.63;7.40;;;;;;;;;;5078193;28;20453;-75
2020/12/21 04:27:59;;;;;;;10.97;7.90;;;;;;;;;;5078421;28;20472;-75
2020/12/21 04:30:26;;;;;;;15.70;7.20;;;;;;;;;;5078524;28;20747;-75
2020/12/21 04:32:53;;;;;;;11.70;6.80;;;;;;;;;;5078085;28;20734;-75
2020/12/21 04:35:22;;;;;;;8.33;5.80;;;;;;;;;;5078944;28;20464;-75
2020/12/21 04:37:52;;;;;;;11.40;8.00;;;;;;;;;;5098519;28;20483;-76
2020/12/21 04:40:20;;;;;;;11.00;7.20;;;;;;;;;;5098097;28;20452;-75
2020/12/21 04:42:48;;;;;;;12.47;7.87;;;;;;;;;;5098023;28;20930;-74
2020/12/21 04:45:17;;;;;;;9.63;6.97;;;;;;;;;;5097564;28;20475;-75
2020/12/21 04:47:45;;;;;;;13.80;6.97;;;;;;;;;;5097846;28;20550;-75
2020/12/21 04:50:13;;;;;;;12.30;7.80;;;;;;;;;;5098216;28;20872;-75
2020/12/21 04:52:46;;;;;;;14.00;7.13;;;;;;;;;;5096863;28;20530;-75
2020/12/21 04:55:16;;;;;;;9.63;6.87;;;;;;;;;;5097541;28;20462;-75
2020/12/21 04:57:53;;;;;;;15.97;7.17;;;;;;;;;;5098184;28;21058;-74
2020/12/21 05:00:20;;;;;;;9.93;6.93;;;;;;;;;;5096774;28;20440;-74
2020/12/21 05:02:48;;;;;;;7.67;6.40;;;;;;;;;;5097471;28;20506;-75
2020/12/21 05:05:15;;;;;;;10.80;6.87;;;;;;;;;;5096846;28;20638;-75
2020/12/21 05:07:42;;;;;;;10.63;6.70;;;;;;;;;;5097145;28;20555;-75
2020/12/21 05:10:10;;;;;;;11.97;7.57;;;;;;;;;;5096875;28;20948;-74
2020/12/21 05:12:37;;;;;;;12.03;7.37;;;;;;;;;;5097414;28;20467;-75
2020/12/21 05:15:14;;;;;;;14.43;7.77;;;;;;;;;;5097227;28;20472;-75
2020/12/21 05:17:41;;;;;;;16.33;6.50;;;;;;;;;;5097624;28;20481;-75
2020/12/21 05:20:09;;;;;;;10.10;6.73;;;;;;;;;;5097212;28;20966;-74
2020/12/21 05:22:36;;;;;;;16.27;7.80;;;;;;;;;;5097024;28;20475;-74
2020/12/21 05:25:07;;;;;;;13.87;7.43;;;;;;;;;;5097714;28;20780;-75
2020/12/21 05:27:34;;;;;;;11.20;6.43;;;;;;;;;;5096968;28;20569;-75
2020/12/21 05:30:02;;;;;;;11.37;6.20;;;;;;;;;;5096881;28;20464;-75
2020/12/21 05:32:30;;;;;;;13.97;7.37;;;;;;;;;;5097232;28;20460;-76
2020/12/21 05:35:05;;;;;;;14.77;8.17;;;;;;;;;;5097184;28;20624;-74
2020/12/21 05:37:34;;;;;;;8.63;6.30;;;;;;;;;;5096962;28;20462;-75
2020/12/21 05:40:01;;;;;;;13.57;7.23;;;;;;;;;;5097321;28;20588;-75
2020/12/21 05:42:29;;;;;;;11.10;7.40;;;;;;;;;;5096710;28;20487;-75
2020/12/21 05:44:57;;;;;;;10.80;6.77;;;;;;;;;;5097159;28;20475;-74
2020/12/21 05:47:24;;;;;;;8.60;5.77;;;;;;;;;;5096931;28;20468;-75
2020/12/21 05:49:57;;;;;;;13.23;6.97;;;;;;;;;;5096904;28;20459;-74
2020/12/21 05:52:28;;;;;;;14.67;6.87;;;;;;;;;;5096493;28;20455;-75
2020/12/21 05:54:55;;;;;;;14.20;6.70;;;;;;;;;;5097727;28;20893;-74
2020/12/21 05:57:25;;;;;;;13.50;7.20;;;;;;;;;;5096735;28;20868;-75
2020/12/21 05:59:53;;;;;;;12.40;7.30;;;;;;;;;;5097346;28;20600;-75
2020/12/21 06:02:22;;;;;;;11.23;6.40;;;;;;;;;;5097056;28;20557;-75
2020/12/21 06:04:50;;;;;;;11.40;6.30;;;;;;;;;;5097377;28;20464;-75
2020/12/21 06:07:23;;;;;;;9.63;5.63;;;;;;;;;;5096806;28;20463;-75
2020/12/21 06:09:52;;;;;;;21.10;6.93;;;;;;;;;;5096357;28;20603;-75
2020/12/21 06:12:21;;;;;;;11.23;5.80;;;;;;;;;;5097278;28;21083;-75
2020/12/21 06:14:48;;;;;;;14.97;6.60;;;;;;;;;;5097219;28;20464;-75
2020/12/21 06:17:16;;;;;;;12.30;6.57;;;;;;;;;;5096909;28;20785;-75
2020/12/21 06:19:49;;;;;;;11.73;6.30;;;;;;;;;;5096989;28;20470;-75
2020/12/21 06:22:26;;;;;;;12.23;6.77;;;;;;;;;;5097917;28;20533;-75
2020/12/21 06:24:53;;;;;;;10.10;6.40;;;;;;;;;;5095955;28;20463;-76
2020/12/21 06:27:23;;;;;;;11.40;6.90;;;;;;;;;;5094912;28;20468;-75
2020/12/21 06:29:59;;;;;;;13.80;6.17;;;;;;;;;;5095852;28;20466;-74
2020/12/21 06:32:33;;;;;;;13.30;5.30;;;;;;;;;;5095488;28;20464;-75
2020/12/21 06:35:00;;;;;;;16.20;6.17;;;;;;;;;;5095817;28;20625;-75
2020/12/21 06:37:30;;;;;;;12.13;6.37;;;;;;;;;;5095659;28;20517;-75
2020/12/21 06:40:02;;;;;;;10.87;5.77;;;;;;;;;;5096333;28;20479;-76
2020/12/21 06:42:32;;;;;;;13.00;6.60;;;;;;;;;;5095193;28;20478;-75
2020/12/21 06:45:27;;;;;;;;;;;;;;;;;;;;;
2020/12/21 06:48:04;;;;;;;11.70;6.43;;;;;;;;;;5096554;28;20471;-74
2020/12/21 06:50:49;;;;;;;21.00;7.13;;;;;;;;;;5096335;28;20505;-75
2020/12/21 06:53:17;;;;;;;10.50;6.90;;;;;;;;;;5095903;28;20479;-75
2020/12/21 06:56:05;;;;;;;10.00;5.67;;;;;;;;;;5097040;28;20471;-75
2020/12/21 06:58:37;;;;;;;11.83;5.80;;;;;;;;;;5094191;28;20464;-74
2020/12/21 07:01:04;;;;;;;17.87;6.00;;;;;;;;;;5098008;28;20455;-75
2020/12/21 07:03:42;;;;;;;10.17;5.57;;;;;;;;;;5096499;28;20500;-75
2020/12/21 07:06:25;;;;;;;7.83;5.60;;;;;;;;;;5097961;28;20459;-75
2020/12/21 07:09:00;;;;;;;15.73;6.40;;;;;;;;;;5093003;28;20700;-73
2020/12/21 07:17:25;;;;;;;10.80;6.10;;;;;;;;;;5095452;28;20578;-74
2020/12/21 07:20:07;;;;;;;13.30;5.53;;;;;;;;;;5099590;28;20448;-76
2020/12/21 07:22:37;;;;;;;12.10;6.47;;;;;;;;;;5088558;28;20533;-75
2020/12/21 07:25:13;;;;;;;11.90;7.20;;;;;;;;;;5096056;28;20456;-75
2020/12/21 07:27:40;;;;;;;10.07;5.67;;;;;;;;;;5077772;28;20556;-75
2020/12/21 07:30:10;;;;;;;9.07;6.57;;;;;;;;;;5076851;28;20460;-73
2020/12/21 07:32:40;;;;;;;15.00;5.40;;;;;;;;;;5078887;28;20454;-75
2020/12/21 07:35:19;;;;;;;14.83;5.37;;;;;;;;;;5075991;28;20518;-75
2020/12/21 07:37:46;;;;;;;15.43;6.70;;;;;;;;;;5083136;28;20510;-75
2020/12/21 07:40:21;;;;;;;14.87;6.60;;;;;;;;;;5075135;28;20452;-75
2020/12/21 07:42:54;;;;;;;7.83;5.70;;;;;;;;;;5080202;28;20857;-75
2020/12/21 07:45:24;;;;;;;11.60;5.70;;;;;;;;;;5075596;28;20892;-74
2020/12/21 07:47:52;;;;;;;12.60;6.17;;;;;;;;;;5075861;28;20903;-75
2020/12/21 07:50:20;;;;;;;16.53;6.20;;;;;;;;;;5079812;28;20484;-74
2020/12/21 07:53:05;;;;;;;13.10;5.97;;;;;;;;;;5090989;28;20482;-75
2020/12/21 07:55:59;;;;;;;10.10;6.37;;;;;;;;;;5100801;28;20452;-75
2020/12/21 07:58:28;;;;;;;15.30;6.37;;;;;;;;;;5089889;28;20894;-75
2020/12/21 08:00:56;;;;;;;14.17;6.80;;;;;;;;;;5099665;28;20452;-74
2020/12/21 08:03:25;;;;;;;13.67;6.20;;;;;;;;;;5098826;28;20491;-75
2020/12/21 08:05:53;;;;;;;9.77;5.90;;;;;;;;;;5097909;28;20456;-75
2020/12/21 08:08:22;;;;;;;9.37;5.27;;;;;;;;;;5098745;28;20468;-74
2020/12/21 08:10:56;;;;;;;12.10;5.40;;;;;;;;;;5097337;28;20467;-75
2020/12/21 08:13:35;;;;;;;15.67;6.97;;;;;;;;;;5096596;28;20503;-74
2020/12/21 08:16:07;;;;;;;15.10;5.80;;;;;;;;;;5096425;28;20455;-75
2020/12/21 08:18:35;;;;;;;11.37;4.70;;;;;;;;;;5083099;28;20452;-75
2020/12/21 08:21:12;;;;;;;15.10;5.80;;;;;;;;;;5095310;28;20861;-75
2020/12/21 08:23:45;;;;;;;10.63;5.90;;;;;;;;;;5082087;28;20469;-75
2020/12/21 08:26:15;;;;;;;9.17;5.67;;;;;;;;;;5077210;28;20459;-75
2020/12/21 08:28:44;;;;;;;10.73;5.00;;;;;;;;;;5077144;28;20467;-75
2020/12/21 08:31:15;;;;;;;8.67;5.37;;;;;;;;;;5082444;28;20463;-76
2020/12/21 08:33:45;;;;;;;11.93;5.37;;;;;;;;;;5097095;28;20962;-75
2020/12/21 08:36:17;;;;;;;12.50;6.80;;;;;;;;;;5097549;28;20788;-75
2020/12/21 08:38:59;;;;;;;10.07;5.77;;;;;;;;;;5086102;28;20996;-80
2020/12/21 08:41:59;;;;;;;13.40;6.10;;;;;;;;;;5104537;28;20466;-80
2020/12/21 08:44:30;;;;;;;10.60;5.43;;;;;;;;;;5092488;28;20511;-75
2020/12/21 08:47:11;;;;;;;9.97;6.53;;;;;;;;;;5097568;28;20464;-73
2020/12/21 08:49:38;;;;;;;16.40;9.50;;;;;;;;;;5076949;28;20530;-75
2020/12/21 08:52:06;;;;;;;11.07;6.20;;;;;;;;;;5077052;28;20904;-73
2020/12/21 08:54:33;;;;;;;11.60;5.83;;;;;;;;;;5076313;28;20463;-74
2020/12/21 08:57:00;;;;;;;11.57;5.67;;;;;;;;;;5076574;28;20479;-74
2020/12/21 08:59:31;;;;;;;9.00;5.40;;;;;;;;;;5076403;28;20464;-74
2020/12/21 09:01:59;;;;;;;10.23;5.93;;;;;;;;;;5076403;28;20465;-74
2020/12/21 09:04:27;;;;;;;6.00;4.80;;;;;;;;;;5085220;28;20485;-74
2020/12/21 09:06:55;;;;;;;9.40;5.90;;;;;;;;;;5078522;28;20495;-73
2020/12/21 09:09:22;;;;;;;12.70;7.53;;;;;;;;;;5082297;28;20460;-74
2020/12/21 09:11:53;;;;;;;11.20;5.97;;;;;;;;;;5098295;28;20519;-74
2020/12/21 09:14:24;;;;;;;8.50;5.10;;;;;;;;;;5084045;28;20495;-73
2020/12/21 09:17:18;;;;;;;9.63;7.03;;;;;;;;;;5076414;28;20445;-74
2020/12/21 09:20:07;;;;;;;17.50;9.10;;;;;;;;;;5065205;28;20515;-73
2020/12/21 09:22:49;;;;;;;9.73;5.37;;;;;;;;;;5076229;28;20516;-72
2020/12/21 09:30:40;;;;;;;6.40;4.37;;;;;;;;;;5078211;28;20205;-73
2020/12/21 09:33:40;;;;;;;6.83;5.10;;;;;;;;;;5096143;28;20860;-72
2020/12/21 09:36:19;;;;;;;7.73;5.40;;;;;;;;;;5083056;28;20499;-74
2020/12/21 09:39:08;;;;;;;8.63;5.03;;;;;;;;;;5095548;28;20618;-72
2020/12/21 09:41:38;;;;;;;8.37;4.77;;;;;;;;;;5071422;28;20508;-73
2020/12/21 09:44:09;;;;;;;7.73;4.83;;;;;;;;;;5075673;28;20485;-73
2020/12/21 09:46:39;;;;;;;7.33;4.20;;;;;;;;;;5086129;28;20476;-73
2020/12/21 09:49:11;;;;;;;8.97;4.93;;;;;;;;;;5095398;28;20853;-73
2020/12/21 09:51:44;;;;;;;8.57;3.90;;;;;;;;;;5095809;28;21103;-74
2020/12/21 09:54:15;;;;;;;7.77;3.90;;;;;;;;;;5095695;28;20460;-74
2020/12/21 09:56:46;;;;;;;7.40;4.27;;;;;;;;;;5093965;28;20476;-73
2020/12/21 09:59:15;;;;;;;13.87;4.80;;;;;;;;;;5094710;28;20467;-73
2020/12/21 10:01:42;;;;;;;8.10;4.70;;;;;;;;;;5093826;28;21052;-73
2020/12/21 10:04:11;;;;;;;9.87;4.60;;;;;;;;;;5094348;28;20836;-73
2020/12/21 10:06:40;;;;;;;8.13;3.97;;;;;;;;;;5077155;28;20453;-73
2020/12/21 10:09:07;;;;;;;10.67;4.47;;;;;;;;;;5075618;28;20457;-73
2020/12/21 10:11:37;;;;;;;8.00;4.27;;;;;;;;;;5073861;28;20461;-73
2020/12/21 10:14:05;;;;;;;7.67;4.00;;;;;;;;;;5074880;28;20476;-73
2020/12/21 10:16:35;;;;;;;8.33;4.23;;;;;;;;;;5083930;28;20459;-73
2020/12/21 10:19:05;;;;;;;11.33;5.13;;;;;;;;;;5093599;28;20467;-73
2020/12/21 10:21:32;;;;;;;6.50;4.07;;;;;;;;;;5093016;28;20463;-73
2020/12/21 10:24:04;;;;;;;10.03;3.87;;;;;;;;;;5083415;28;20481;-75
2020/12/21 10:26:36;;;;;;;7.40;3.87;;;;;;;;;;5089510;28;20483;-74
2020/12/21 10:29:04;;;;;;;9.60;4.03;;;;;;;;;;5092815;28;20979;-74
2020/12/21 10:31:31;;;;;;;10.97;5.33;;;;;;;;;;5085333;28;20496;-73
2020/12/21 10:33:58;;;;;;;9.87;4.40;;;;;;;;;;5079928;28;20768;-72
2020/12/21 10:36:28;;;;;;;10.40;4.40;;;;;;;;;;5077185;28;20441;-73
2020/12/21 10:38:59;;;;;;;7.53;4.23;;;;;;;;;;5083334;28;20468;-72
2020/12/21 10:41:36;;;;;;;8.20;3.93;;;;;;;;;;5083229;28;20461;-74
2020/12/21 10:44:03;;;;;;;9.67;4.87;;;;;;;;;;5088073;28;20532;-73
2020/12/21 10:46:31;;;;;;;8.90;4.17;;;;;;;;;;5094960;28;20459;-73
2020/12/21 10:48:58;;;;;;;12.57;4.33;;;;;;;;;;5095123;28;20460;-74
2020/12/21 10:51:26;;;;;;;9.50;3.60;;;;;;;;;;5078941;28;20900;-73
2020/12/21 10:53:54;;;;;;;5.43;3.57;;;;;;;;;;5075645;28;20781;-73
2020/12/21 10:56:22;;;;;;;8.17;2.90;;;;;;;;;;5080125;28;20479;-73
2020/12/21 10:58:53;;;;;;;9.43;3.20;;;;;;;;;;5079115;28;20463;-73
2020/12/21 11:01:26;;;;;;;10.60;3.23;;;;;;;;;;5080951;28;20878;-73
2020/12/21 11:04:48;;;;;;;6.57;3.43;;;;;;;;;;5095356;28;20488;-74
2020/12/21 11:07:19;;;;;;;3.87;2.70;;;;;;;;;;5059184;28;20468;-73
2020/12/21 11:09:56;;;;;;;6.83;3.00;;;;;;;;;;5094728;28;20456;-73
2020/12/21 11:12:27;;;;;;;7.80;3.03;;;;;;;;;;5093541;28;20490;-73
2020/12/21 11:14:55;;;;;;;6.53;2.93;;;;;;;;;;5094134;28;20501;-72
2020/12/21 11:17:22;;;;;;;6.67;3.07;;;;;;;;;;5092778;28;20503;-73
2020/12/21 11:19:50;;;;;;;7.53;3.50;;;;;;;;;;5089050;28;20433;-73
2020/12/21 11:22:17;;;;;;;7.00;2.57;;;;;;;;;;5074353;28;20530;-73
2020/12/21 11:24:50;;;;;;;9.30;2.87;;;;;;;;;;5077500;28;20499;-74
2020/12/21 11:27:17;;;;;;;9.40;3.47;;;;;;;;;;5078695;28;20460;-73
2020/12/21 11:29:45;;;;;;;4.67;3.03;;;;;;;;;;5078579;28;20906;-73
2020/12/21 11:32:25;;;;;;;8.20;2.70;;;;;;;;;;5079851;28;21011;-73
2020/12/21 11:35:03;;;;;;;5.33;2.73;;;;;;;;;;5079907;28;20753;-74
2020/12/21 11:37:41;;;;;;;5.73;2.70;;;;;;;;;;5080314;28;20547;-72
2020/12/21 11:40:34;;;;;;;6.63;2.50;;;;;;;;;;5078245;28;20445;-74
2020/12/21 11:43:18;;;;;;;9.80;3.63;;;;;;;;;;5079123;28;20785;-73
2020/12/21 11:46:11;;;;;;;5.93;3.00;;;;;;;;;;5077730;28;20456;-73
2020/12/21 11:48:48;;;;;;;7.80;2.50;;;;;;;;;;5080278;28;20506;-73
2020/12/21 11:51:25;;;;;;;7.97;4.83;;;;;;;;;;5079382;28;20449;-74
2020/12/21 11:54:25;;;;;;;5.80;2.60;;;;;;;;;;5077350;28;20551;-74
2020/12/21 11:57:04;;;;;;;5.53;2.30;;;;;;;;;;5080787;28;20457;-75
2020/12/21 11:59:54;;;;;;;4.67;2.23;;;;;;;;;;5080204;28;20461;-73
2020/12/21 12:03:14;;;;;;;9.63;2.63;;;;;;;;;;5080950;28;20453;-73
2020/12/21 12:05:53;;;;;;;7.57;3.00;;;;;;;;;;5068868;28;20461;-73
2020/12/21 12:11:21;;;;;;;8.03;2.03;;;;;;;;;;5097537;28;20915;-74
2020/12/21 12:14:04;;;;;;;4.90;2.40;;;;;;;;;;5094675;28;20460;-74
2020/12/21 12:19:43;;;;;;;4.80;2.80;;;;;;;;;;5096164;28;20515;-74
2020/12/21 12:22:31;;;;;;;9.30;2.97;;;;;;;;;;5099492;28;20562;-74
2020/12/21 12:25:46;;;;;;;8.90;2.77;;;;;;;;;;5079025;28;20474;-75
2020/12/21 12:28:53;;;;;;;8.47;2.57;;;;;;;;;;5085227;28;20826;-75
2020/12/21 12:31:34;;;;;;;8.13;2.73;;;;;;;;;;5077498;28;20535;-74
2020/12/21 12:37:05;;;;;;;6.00;2.30;;;;;;;;;;5079242;28;20437;-75
2020/12/21 12:45:47;;;;;;;8.53;3.13;;;;;;;;;;5071560;28;20917;-74
2020/12/21 12:48:31;;;;;;;5.13;2.37;;;;;;;;;;5078226;28;20449;-73
2020/12/21 12:57:03;;;;;;;5.13;2.37;;;;;;;;;;5076348;28;20449;-75
2020/12/21 13:00:01;;;;;;;7.90;2.73;;;;;;;;;;5079303;28;20503;-74
2020/12/21 13:02:50;;;;;;;6.23;2.20;;;;;;;;;;5048590;28;20479;-75
2020/12/21 13:05:35;;;;;;;;;;;;;;;;;;;;;
2020/12/21 13:08:06;;;;;;;6.07;2.67;;;;;;;;;;5095600;28;20470;-73
2020/12/21 13:13:51;;;;;;;5.13;2.57;;;;;;;;;;5088532;28;20468;-74
2020/12/21 13:16:33;;;;;;;7.97;2.70;;;;;;;;;;5078247;28;20559;-73
2020/12/21 13:19:00;;;;;;;5.50;2.43;;;;;;;;;;5080233;28;20817;-74
2020/12/21 13:21:33;;;;;;;8.80;2.70;;;;;;;;;;5094827;28;20942;-74
2020/12/21 13:24:04;;;;;;;7.13;2.53;;;;;;;;;;5079112;28;20905;-73
2020/12/21 13:26:34;;;;;;;6.57;3.00;;;;;;;;;;5078062;28;20936;-73
2020/12/21 13:29:03;;;;;;;7.97;2.77;;;;;;;;;;5084993;28;20468;-73
2020/12/21 13:31:32;;;;;;;5.93;2.73;;;;;;;;;;5076537;28;20465;-74
2020/12/21 13:34:25;;;;;;;8.23;3.10;;;;;;;;;;5074484;28;20478;-72
2020/12/21 13:36:54;;;;;;;6.43;2.43;;;;;;;;;;5073828;28;20484;-74
2020/12/21 13:39:25;;;;;;;13.87;3.00;;;;;;;;;;5075300;28;20451;-74
2020/12/21 13:41:54;;;;;;;4.43;2.37;;;;;;;;;;5076299;28;20461;-73
2020/12/21 13:44:21;;;;;;;6.00;2.70;;;;;;;;;;5077675;28;20480;-73
2020/12/21 13:46:49;;;;;;;7.77;3.00;;;;;;;;;;5083814;28;20464;-74
2020/12/21 13:49:19;;;;;;;7.33;3.17;;;;;;;;;;5075903;28;20465;-75
2020/12/21 13:51:47;;;;;;;7.37;2.60;;;;;;;;;;5083589;28;20471;-75
2020/12/21 13:54:20;;;;;;;7.67;2.93;;;;;;;;;;5083371;28;20464;-75
2020/12/21 13:57:12;;;;;;;6.03;3.20;;;;;;;;;;5074724;28;20893;-74
2020/12/21 13:59:40;;;;;;;5.00;3.67;;;;;;;;;;5072491;28;20911;-73
2020/12/21 14:02:10;;;;;;;8.03;3.57;;;;;;;;;;5078321;28;20479;-74
2020/12/21 14:04:38;;;;;;;6.93;3.63;;;;;;;;;;5093931;28;20495;-75
2020/12/21 14:07:11;;;;;;;8.90;3.80;;;;;;;;;;5093971;28;20466;-74
2020/12/21 14:09:54;;;;;;;10.97;3.90;;;;;;;;;;5094882;28;20448;-73
2020/12/21 14:12:26;;;;;;;6.63;2.97;;;;;;;;;;5073497;28;20464;-74
2020/12/21 14:15:03;;;;;;;6.30;3.23;;;;;;;;;;5075299;28;20658;-73
2020/12/21 14:17:54;;;;;;;7.60;2.60;;;;;;;;;;5093251;28;20856;-73
2020/12/21 14:20:47;;;;;;;7.90;3.57;;;;;;;;;;5084658;28;20471;-73
2020/12/21 14:23:39;;;;;;;6.33;3.27;;;;;;;;;;5088632;28;21179;-74
2020/12/21 14:26:23;;;;;;;8.90;4.10;;;;;;;;;;5077522;28;20475;-74
2020/12/21 14:28:56;;;;;;;12.37;5.40;;;;;;;;;;5092675;28;20459;-73
2020/12/21 14:31:30;;;;;;;6.30;3.20;;;;;;;;;;5086307;28;20549;-73
2020/12/21 14:34:13;;;;;;;5.80;3.30;;;;;;;;;;5079132;28;20455;-72
2020/12/21 14:45:45;;;;;;;5.80;3.10;;;;;;;;;;5069365;28;20558;-74
2020/12/21 14:48:23;;;;;;;7.00;3.30;;;;;;;;;;5073755;28;20849;-73
2020/12/21 14:51:04;;;;;;;;;;;;;;;;;;;;;
2020/12/21 14:53:51;;;;;;;;;;;;;;;;;;;;;
2020/12/21 14:56:22;;;;;;;10.00;5.17;;;;;;;;;;5071604;28;20463;-74
2020/12/21 14:58:55;;;;;;;8.13;3.23;;;;;;;;;;5084769;28;20525;-74
2020/12/21 15:01:23;;;;;;;9.23;3.80;;;;;;;;;;5098974;28;20448;-73
2020/12/21 15:04:18;;;;;;;7.27;3.33;;;;;;;;;;5097315;28;20527;-73
2020/12/21 15:06:48;;;;;;;7.33;3.90;;;;;;;;;;5096855;28;20467;-73
2020/12/21 15:09:39;;;;;;;6.87;3.47;;;;;;;;;;5087273;28;20534;-73
2020/12/21 15:12:14;;;;;;;6.73;3.47;;;;;;;;;;5094023;28;20625;-74
2020/12/21 15:14:45;;;;;;;8.00;3.07;;;;;;;;;;5097560;28;20463;-74
2020/12/21 15:17:33;;;;;;;6.60;3.57;;;;;;;;;;5097297;28;20486;-75
2020/12/21 15:20:04;;;;;;;5.10;2.83;;;;;;;;;;5084030;28;20587;-75
2020/12/21 15:23:09;;;;;;;10.83;3.77;;;;;;;;;;5094096;28;20760;-74
2020/12/21 15:25:42;;;;;;;7.60;3.70;;;;;;;;;;5089384;28;20453;-76
2020/12/21 15:28:13;;;;;;;6.57;3.60;;;;;;;;;;5077338;28;20475;-75
2020/12/21 15:30:46;;;;;;;7.57;3.63;;;;;;;;;;5082944;28;20510;-75
2020/12/21 15:33:37;;;;;;;6.97;3.27;;;;;;;;;;5077051;28;20461;-75
2020/12/21 15:36:05;;;;;;;8.90;3.53;;;;;;;;;;5076542;28;20460;-75
2020/12/21 15:38:52;;;;;;;5.57;3.20;;;;;;;;;;5087363;28;20474;-75
2020/12/21 15:41:20;;;;;;;6.03;3.47;;;;;;;;;;5090309;28;20448;-74
2020/12/21 15:44:06;;;;;;;6.23;3.90;;;;;;;;;;5084402;28;20476;-74
2020/12/21 15:46:47;;;;;;;7.80;4.23;;;;;;;;;;5096683;28;20585;-75
2020/12/21 15:49:27;;;;;;;12.73;3.90;;;;;;;;;;5076832;28;20453;-73
2020/12/21 15:51:55;;;;;;;7.80;3.83;;;;;;;;;;5077464;28;20476;-74
2020/12/21 15:54:28;;;;;;;7.60;3.60;;;;;;;;;;5078142;28;20874;-73